アルジェ の空港の天気 - METARとTAF

ウアリ・ブーメディアン空港 ( DAAG / ALG ) - アルジェリア アルジェ
飛行場実況気象(Metar)
観測時間08/22 17:30 CET (08/22 16:30 UTC)
風向・風速東 6m/s
視程10km以上
天気現象
少しの雲 雲底高度 700m
気温28℃
湿度62%
気圧1018hPa
METARDAAG 221630Z 08011KT 9999 FEW023 28/20 Q1018
過去の天気等 Google飛行場航空写真 Wunderground天気予報

過去48時間のMETAR

飛行場予報(TAF)
発表時間: 8/22 12:00 CET (8/22 11:00 UTC)
予報対象時間: 22日13時 CET ~ 23日13時 CET
風向・風速北東 4m/s
視程10km以上
少しの雲 雲底高度 610m
全天の4割程度の雲 雲底高度 1220m
22日13時 CET ~ 22日21時 CET に一時的に
少しの塔状積雲 雲底高度 610m
少しの積乱雲 雲底高度 790m
23日0時 CET から 確率 40% で
視程3000m
天気現象もや
全天の8割程度の雲 雲底高度 460m
23日3時 CET ~ 23日8時 CET に 確率 40% で一時的に
視程800m
天気現象
全天の8割程度の雲 雲底高度 240m
TAF DAAG 221100Z 2212/2312 05008KT 9999 FEW020 SCT040
TEMPO 2212/2220 FEW020TCU FEW026CB
PROB40 2223/2307 3000 BR BKN015
PROB40 TEMPO 2302/2307 0800 FG BKN008